sensor_id;sensor_type;location;lat;lon;timestamp;temperature;humidity
4755;DHT22;2391;47.212;7.542;2023-09-30T00:00:38;21.60;89.40
4755;DHT22;2391;47.212;7.542;2023-09-30T00:03:03;21.60;89.40
4755;DHT22;2391;47.212;7.542;2023-09-30T00:05:29;21.60;89.20
4755;DHT22;2391;47.212;7.542;2023-09-30T00:07:55;21.60;89.20
4755;DHT22;2391;47.212;7.542;2023-09-30T00:10:21;21.60;89.30
4755;DHT22;2391;47.212;7.542;2023-09-30T00:12:46;21.60;89.40
4755;DHT22;2391;47.212;7.542;2023-09-30T00:15:12;21.50;89.40
4755;DHT22;2391;47.212;7.542;2023-09-30T00:17:38;21.50;89.50
4755;DHT22;2391;47.212;7.542;2023-09-30T00:20:05;21.60;89.70
4755;DHT22;2391;47.212;7.542;2023-09-30T00:22:30;21.50;89.60
4755;DHT22;2391;47.212;7.542;2023-09-30T00:24:56;21.50;89.60
4755;DHT22;2391;47.212;7.542;2023-09-30T00:27:22;21.50;89.70
4755;DHT22;2391;47.212;7.542;2023-09-30T00:29:48;21.50;89.80
4755;DHT22;2391;47.212;7.542;2023-09-30T00:32:13;21.50;89.90
4755;DHT22;2391;47.212;7.542;2023-09-30T00:34:39;21.40;89.90
4755;DHT22;2391;47.212;7.542;2023-09-30T00:37:06;21.50;90.10
4755;DHT22;2391;47.212;7.542;2023-09-30T00:39:35;21.50;89.90
4755;DHT22;2391;47.212;7.542;2023-09-30T00:42:02;21.40;90.00
4755;DHT22;2391;47.212;7.542;2023-09-30T00:44:30;21.30;90.00
4755;DHT22;2391;47.212;7.542;2023-09-30T00:46:56;21.20;90.10
4755;DHT22;2391;47.212;7.542;2023-09-30T00:49:23;21.30;90.30
4755;DHT22;2391;47.212;7.542;2023-09-30T00:51:50;21.30;90.40
4755;DHT22;2391;47.212;7.542;2023-09-30T00:54:17;21.30;90.40
4755;DHT22;2391;47.212;7.542;2023-09-30T00:56:46;21.20;90.40
4755;DHT22;2391;47.212;7.542;2023-09-30T00:59:14;21.30;90.40
4755;DHT22;2391;47.212;7.542;2023-09-30T01:01:44;21.20;90.40
4755;DHT22;2391;47.212;7.542;2023-09-30T01:04:14;21.20;90.40
4755;DHT22;2391;47.212;7.542;2023-09-30T01:06:40;21.20;90.50
4755;DHT22;2391;47.212;7.542;2023-09-30T01:09:07;21.20;90.40
4755;DHT22;2391;47.212;7.542;2023-09-30T01:11:34;21.20;90.50
4755;DHT22;2391;47.212;7.542;2023-09-30T01:14:01;21.20;90.50
4755;DHT22;2391;47.212;7.542;2023-09-30T01:16:27;21.10;90.40
4755;DHT22;2391;47.212;7.542;2023-09-30T01:18:53;21.10;90.50
4755;DHT22;2391;47.212;7.542;2023-09-30T01:21:20;21.10;90.40
4755;DHT22;2391;47.212;7.542;2023-09-30T01:23:45;21.10;90.50
4755;DHT22;2391;47.212;7.542;2023-09-30T01:26:13;21.10;90.50
4755;DHT22;2391;47.212;7.542;2023-09-30T01:28:40;21.10;90.60
4755;DHT22;2391;47.212;7.542;2023-09-30T01:31:06;21.10;90.60
4755;DHT22;2391;47.212;7.542;2023-09-30T01:33:32;21.00;90.60
4755;DHT22;2391;47.212;7.542;2023-09-30T01:35:59;21.10;90.50
4755;DHT22;2391;47.212;7.542;2023-09-30T01:38:27;21.10;90.60
4755;DHT22;2391;47.212;7.542;2023-09-30T01:40:53;21.00;90.70
4755;DHT22;2391;47.212;7.542;2023-09-30T01:43:19;21.00;90.70
4755;DHT22;2391;47.212;7.542;2023-09-30T01:45:45;21.00;90.70
4755;DHT22;2391;47.212;7.542;2023-09-30T01:48:11;21.00;90.70
4755;DHT22;2391;47.212;7.542;2023-09-30T01:50:40;21.00;90.70
4755;DHT22;2391;47.212;7.542;2023-09-30T01:53:06;21.00;90.70
4755;DHT22;2391;47.212;7.542;2023-09-30T01:55:33;21.00;90.70
4755;DHT22;2391;47.212;7.542;2023-09-30T01:57:59;20.90;90.70
4755;DHT22;2391;47.212;7.542;2023-09-30T02:00:25;20.90;90.70
4755;DHT22;2391;47.212;7.542;2023-09-30T02:02:55;20.90;90.80
4755;DHT22;2391;47.212;7.542;2023-09-30T02:05:22;20.90;90.80
4755;DHT22;2391;47.212;7.542;2023-09-30T02:07:49;20.90;90.90
4755;DHT22;2391;47.212;7.542;2023-09-30T02:10:15;20.80;90.70
4755;DHT22;2391;47.212;7.542;2023-09-30T02:12:41;20.80;90.80
4755;DHT22;2391;47.212;7.542;2023-09-30T02:15:08;20.80;90.90
4755;DHT22;2391;47.212;7.542;2023-09-30T02:17:34;20.80;91.10
4755;DHT22;2391;47.212;7.542;2023-09-30T02:19:59;20.80;90.90
4755;DHT22;2391;47.212;7.542;2023-09-30T02:22:27;20.80;90.80
4755;DHT22;2391;47.212;7.542;2023-09-30T02:24:54;20.80;90.90
4755;DHT22;2391;47.212;7.542;2023-09-30T02:27:20;20.80;90.90
4755;DHT22;2391;47.212;7.542;2023-09-30T02:29:46;20.80;90.90
4755;DHT22;2391;47.212;7.542;2023-09-30T02:32:11;20.80;91.00
4755;DHT22;2391;47.212;7.542;2023-09-30T02:34:39;20.70;91.00
4755;DHT22;2391;47.212;7.542;2023-09-30T02:37:05;20.80;91.10
4755;DHT22;2391;47.212;7.542;2023-09-30T02:39:30;20.80;91.00
4755;DHT22;2391;47.212;7.542;2023-09-30T02:41:56;20.70;91.00
4755;DHT22;2391;47.212;7.542;2023-09-30T02:44:22;20.70;91.10
4755;DHT22;2391;47.212;7.542;2023-09-30T02:46:48;20.70;91.00
4755;DHT22;2391;47.212;7.542;2023-09-30T02:49:13;20.70;91.10
4755;DHT22;2391;47.212;7.542;2023-09-30T02:51:39;20.70;91.00
4755;DHT22;2391;47.212;7.542;2023-09-30T02:54:05;20.60;91.00
4755;DHT22;2391;47.212;7.542;2023-09-30T02:56:31;20.60;91.00
4755;DHT22;2391;47.212;7.542;2023-09-30T02:58:56;20.60;90.90
4755;DHT22;2391;47.212;7.542;2023-09-30T03:01:24;20.60;91.00
4755;DHT22;2391;47.212;7.542;2023-09-30T03:03:52;20.60;91.10
4755;DHT22;2391;47.212;7.542;2023-09-30T03:06:17;20.60;91.10
4755;DHT22;2391;47.212;7.542;2023-09-30T03:08:44;20.60;91.00
4755;DHT22;2391;47.212;7.542;2023-09-30T03:11:10;20.60;91.00
4755;DHT22;2391;47.212;7.542;2023-09-30T03:13:36;20.60;91.10
4755;DHT22;2391;47.212;7.542;2023-09-30T03:16:03;20.60;91.20
4755;DHT22;2391;47.212;7.542;2023-09-30T03:18:29;20.60;91.20
4755;DHT22;2391;47.212;7.542;2023-09-30T03:21:00;20.60;91.20
4755;DHT22;2391;47.212;7.542;2023-09-30T03:23:28;20.60;91.20
4755;DHT22;2391;47.212;7.542;2023-09-30T03:25:57;20.60;91.20
4755;DHT22;2391;47.212;7.542;2023-09-30T03:28:24;20.50;91.30
4755;DHT22;2391;47.212;7.542;2023-09-30T03:30:50;20.60;91.40
4755;DHT22;2391;47.212;7.542;2023-09-30T03:33:16;20.50;91.40
4755;DHT22;2391;47.212;7.542;2023-09-30T03:35:42;20.50;91.40
4755;DHT22;2391;47.212;7.542;2023-09-30T03:38:10;20.50;91.30
4755;DHT22;2391;47.212;7.542;2023-09-30T03:40:36;20.50;91.30
4755;DHT22;2391;47.212;7.542;2023-09-30T03:43:04;20.50;91.40
4755;DHT22;2391;47.212;7.542;2023-09-30T03:45:34;20.50;91.40
4755;DHT22;2391;47.212;7.542;2023-09-30T03:48:01;20.50;91.40
4755;DHT22;2391;47.212;7.542;2023-09-30T03:50:28;20.50;91.40
4755;DHT22;2391;47.212;7.542;2023-09-30T03:53:02;20.50;91.40
4755;DHT22;2391;47.212;7.542;2023-09-30T03:55:28;20.50;91.40
4755;DHT22;2391;47.212;7.542;2023-09-30T03:57:55;20.50;91.40
4755;DHT22;2391;47.212;7.542;2023-09-30T04:00:21;20.50;91.40
4755;DHT22;2391;47.212;7.542;2023-09-30T04:02:49;20.50;91.30
4755;DHT22;2391;47.212;7.542;2023-09-30T04:05:16;20.50;91.30
4755;DHT22;2391;47.212;7.542;2023-09-30T04:07:43;20.50;91.40
4755;DHT22;2391;47.212;7.542;2023-09-30T04:10:09;20.50;91.20
4755;DHT22;2391;47.212;7.542;2023-09-30T04:12:36;20.50;91.20
4755;DHT22;2391;47.212;7.542;2023-09-30T04:15:02;20.50;91.10
4755;DHT22;2391;47.212;7.542;2023-09-30T04:17:31;20.40;91.10
4755;DHT22;2391;47.212;7.542;2023-09-30T04:20:01;20.40;91.10
4755;DHT22;2391;47.212;7.542;2023-09-30T04:22:26;20.40;91.30
4755;DHT22;2391;47.212;7.542;2023-09-30T04:24:53;20.40;91.40
4755;DHT22;2391;47.212;7.542;2023-09-30T04:27:20;20.40;91.30
4755;DHT22;2391;47.212;7.542;2023-09-30T04:29:47;20.40;91.40
4755;DHT22;2391;47.212;7.542;2023-09-30T04:32:14;20.40;91.30
4755;DHT22;2391;47.212;7.542;2023-09-30T04:34:40;20.40;91.30
4755;DHT22;2391;47.212;7.542;2023-09-30T04:37:06;20.40;91.30
4755;DHT22;2391;47.212;7.542;2023-09-30T04:39:33;20.40;91.30
4755;DHT22;2391;47.212;7.542;2023-09-30T04:42:01;20.40;91.30
4755;DHT22;2391;47.212;7.542;2023-09-30T04:44:26;20.40;91.40
4755;DHT22;2391;47.212;7.542;2023-09-30T04:46:54;20.40;91.40
4755;DHT22;2391;47.212;7.542;2023-09-30T04:49:21;20.40;91.40
4755;DHT22;2391;47.212;7.542;2023-09-30T04:51:49;20.40;91.40
4755;DHT22;2391;47.212;7.542;2023-09-30T04:54:14;20.40;91.30
4755;DHT22;2391;47.212;7.542;2023-09-30T04:56:40;20.40;91.30
4755;DHT22;2391;47.212;7.542;2023-09-30T04:59:07;20.40;91.30
4755;DHT22;2391;47.212;7.542;2023-09-30T05:01:32;20.40;91.30
4755;DHT22;2391;47.212;7.542;2023-09-30T05:03:58;20.30;91.30
4755;DHT22;2391;47.212;7.542;2023-09-30T05:06:24;20.30;91.30
4755;DHT22;2391;47.212;7.542;2023-09-30T05:08:50;20.30;91.40
4755;DHT22;2391;47.212;7.542;2023-09-30T05:11:16;20.30;91.30
4755;DHT22;2391;47.212;7.542;2023-09-30T05:13:41;20.30;91.30
4755;DHT22;2391;47.212;7.542;2023-09-30T05:16:07;20.30;91.30
4755;DHT22;2391;47.212;7.542;2023-09-30T05:18:33;20.30;91.20
4755;DHT22;2391;47.212;7.542;2023-09-30T05:21:00;20.40;91.30
4755;DHT22;2391;47.212;7.542;2023-09-30T05:23:26;20.40;91.20
4755;DHT22;2391;47.212;7.542;2023-09-30T05:25:52;20.40;91.20
4755;DHT22;2391;47.212;7.542;2023-09-30T05:28:20;20.30;91.30
4755;DHT22;2391;47.212;7.542;2023-09-30T05:30:46;20.30;91.30
4755;DHT22;2391;47.212;7.542;2023-09-30T05:33:12;20.30;91.40
4755;DHT22;2391;47.212;7.542;2023-09-30T05:35:41;20.30;91.40
4755;DHT22;2391;47.212;7.542;2023-09-30T05:38:08;20.30;91.40
4755;DHT22;2391;47.212;7.542;2023-09-30T05:40:33;20.30;91.40
4755;DHT22;2391;47.212;7.542;2023-09-30T05:42:59;20.30;91.30
4755;DHT22;2391;47.212;7.542;2023-09-30T05:45:27;20.30;91.30
4755;DHT22;2391;47.212;7.542;2023-09-30T05:47:54;20.30;91.30
4755;DHT22;2391;47.212;7.542;2023-09-30T05:50:20;20.30;91.40
4755;DHT22;2391;47.212;7.542;2023-09-30T05:52:53;20.30;91.40
4755;DHT22;2391;47.212;7.542;2023-09-30T05:55:21;20.30;91.40
4755;DHT22;2391;47.212;7.542;2023-09-30T05:57:48;20.30;91.50
4755;DHT22;2391;47.212;7.542;2023-09-30T06:00:15;20.30;91.50
4755;DHT22;2391;47.212;7.542;2023-09-30T06:02:58;20.30;91.40
4755;DHT22;2391;47.212;7.542;2023-09-30T06:05:24;20.30;91.50
4755;DHT22;2391;47.212;7.542;2023-09-30T06:07:54;20.30;91.70
4755;DHT22;2391;47.212;7.542;2023-09-30T06:10:20;20.30;91.80
4755;DHT22;2391;47.212;7.542;2023-09-30T06:12:47;20.30;91.70
4755;DHT22;2391;47.212;7.542;2023-09-30T06:15:16;20.30;91.70
4755;DHT22;2391;47.212;7.542;2023-09-30T06:17:49;20.30;91.90
4755;DHT22;2391;47.212;7.542;2023-09-30T06:20:18;20.30;91.80
4755;DHT22;2391;47.212;7.542;2023-09-30T06:22:44;20.30;91.80
4755;DHT22;2391;47.212;7.542;2023-09-30T06:25:12;20.20;91.70
4755;DHT22;2391;47.212;7.542;2023-09-30T06:27:39;20.30;91.90
4755;DHT22;2391;47.212;7.542;2023-09-30T06:30:05;20.30;92.10
4755;DHT22;2391;47.212;7.542;2023-09-30T06:32:31;20.30;92.00
4755;DHT22;2391;47.212;7.542;2023-09-30T06:34:58;20.30;91.90
4755;DHT22;2391;47.212;7.542;2023-09-30T06:37:25;20.30;91.90
4755;DHT22;2391;47.212;7.542;2023-09-30T06:39:52;20.30;91.90
4755;DHT22;2391;47.212;7.542;2023-09-30T06:42:18;20.30;91.90
4755;DHT22;2391;47.212;7.542;2023-09-30T06:44:44;20.40;91.90
4755;DHT22;2391;47.212;7.542;2023-09-30T06:47:09;20.40;91.80
4755;DHT22;2391;47.212;7.542;2023-09-30T06:49:38;20.40;91.80
4755;DHT22;2391;47.212;7.542;2023-09-30T06:52:05;20.40;91.70
4755;DHT22;2391;47.212;7.542;2023-09-30T06:54:31;20.40;91.50
4755;DHT22;2391;47.212;7.542;2023-09-30T06:56:57;20.40;91.50
4755;DHT22;2391;47.212;7.542;2023-09-30T06:59:22;20.40;91.60
4755;DHT22;2391;47.212;7.542;2023-09-30T07:01:51;20.40;91.70
4755;DHT22;2391;47.212;7.542;2023-09-30T07:04:17;20.40;91.60
4755;DHT22;2391;47.212;7.542;2023-09-30T07:06:42;20.40;91.50
4755;DHT22;2391;47.212;7.542;2023-09-30T07:09:08;20.40;91.50
4755;DHT22;2391;47.212;7.542;2023-09-30T07:11:36;20.40;91.40
4755;DHT22;2391;47.212;7.542;2023-09-30T07:14:02;20.40;91.30
4755;DHT22;2391;47.212;7.542;2023-09-30T07:16:27;20.50;91.30
4755;DHT22;2391;47.212;7.542;2023-09-30T07:18:53;20.50;91.30
4755;DHT22;2391;47.212;7.542;2023-09-30T07:21:19;20.50;91.40
4755;DHT22;2391;47.212;7.542;2023-09-30T07:23:45;20.60;91.40
4755;DHT22;2391;47.212;7.542;2023-09-30T07:26:10;20.60;91.50
4755;DHT22;2391;47.212;7.542;2023-09-30T07:28:36;20.70;91.40
4755;DHT22;2391;47.212;7.542;2023-09-30T07:31:02;20.70;91.20
4755;DHT22;2391;47.212;7.542;2023-09-30T07:33:28;20.80;91.60
4755;DHT22;2391;47.212;7.542;2023-09-30T07:35:55;20.90;91.10
4755;DHT22;2391;47.212;7.542;2023-09-30T07:38:21;21.00;91.10
4755;DHT22;2391;47.212;7.542;2023-09-30T07:40:47;21.10;90.90
4755;DHT22;2391;47.212;7.542;2023-09-30T07:43:15;21.20;90.60
4755;DHT22;2391;47.212;7.542;2023-09-30T07:45:43;21.20;90.40
4755;DHT22;2391;47.212;7.542;2023-09-30T07:48:09;21.20;90.50
4755;DHT22;2391;47.212;7.542;2023-09-30T07:50:36;21.30;90.50
4755;DHT22;2391;47.212;7.542;2023-09-30T07:53:03;21.30;90.50
4755;DHT22;2391;47.212;7.542;2023-09-30T07:55:29;21.40;90.50
4755;DHT22;2391;47.212;7.542;2023-09-30T07:57:56;21.40;90.60
4755;DHT22;2391;47.212;7.542;2023-09-30T08:00:23;21.40;90.20
4755;DHT22;2391;47.212;7.542;2023-09-30T08:02:49;21.40;89.90
4755;DHT22;2391;47.212;7.542;2023-09-30T08:05:15;21.40;90.00
4755;DHT22;2391;47.212;7.542;2023-09-30T08:07:41;21.40;90.00
4755;DHT22;2391;47.212;7.542;2023-09-30T08:10:07;21.30;90.30
4755;DHT22;2391;47.212;7.542;2023-09-30T08:12:35;21.40;90.00
4755;DHT22;2391;47.212;7.542;2023-09-30T08:15:01;21.30;89.70
4755;DHT22;2391;47.212;7.542;2023-09-30T08:17:28;21.30;90.30
4755;DHT22;2391;47.212;7.542;2023-09-30T08:19:55;21.30;90.40
4755;DHT22;2391;47.212;7.542;2023-09-30T08:22:21;21.30;90.70
4755;DHT22;2391;47.212;7.542;2023-09-30T08:24:48;21.40;90.50
4755;DHT22;2391;47.212;7.542;2023-09-30T08:27:14;21.40;90.30
4755;DHT22;2391;47.212;7.542;2023-09-30T08:29:40;21.50;90.40
4755;DHT22;2391;47.212;7.542;2023-09-30T08:32:05;21.70;90.50
4755;DHT22;2391;47.212;7.542;2023-09-30T08:34:32;21.80;90.10
4755;DHT22;2391;47.212;7.542;2023-09-30T08:36:59;21.90;89.50
4755;DHT22;2391;47.212;7.542;2023-09-30T08:39:25;22.00;89.90
4755;DHT22;2391;47.212;7.542;2023-09-30T08:41:51;22.00;89.30
4755;DHT22;2391;47.212;7.542;2023-09-30T08:44:17;22.00;88.80
4755;DHT22;2391;47.212;7.542;2023-09-30T08:46:43;22.00;89.00
4755;DHT22;2391;47.212;7.542;2023-09-30T08:49:11;22.00;88.50
4755;DHT22;2391;47.212;7.542;2023-09-30T08:51:39;22.00;88.20
4755;DHT22;2391;47.212;7.542;2023-09-30T08:54:06;22.10;88.50
4755;DHT22;2391;47.212;7.542;2023-09-30T08:56:32;22.10;88.40
4755;DHT22;2391;47.212;7.542;2023-09-30T08:59:00;22.20;88.10
4755;DHT22;2391;47.212;7.542;2023-09-30T09:01:27;22.20;88.30
4755;DHT22;2391;47.212;7.542;2023-09-30T09:03:54;22.30;88.00
4755;DHT22;2391;47.212;7.542;2023-09-30T09:06:21;22.50;87.70
4755;DHT22;2391;47.212;7.542;2023-09-30T09:08:47;22.50;86.20
4755;DHT22;2391;47.212;7.542;2023-09-30T09:11:13;22.60;86.60
4755;DHT22;2391;47.212;7.542;2023-09-30T09:13:51;22.60;87.10
4755;DHT22;2391;47.212;7.542;2023-09-30T09:16:19;22.70;86.20
4755;DHT22;2391;47.212;7.542;2023-09-30T09:18:45;22.60;86.80
4755;DHT22;2391;47.212;7.542;2023-09-30T09:21:20;22.60;86.20
4755;DHT22;2391;47.212;7.542;2023-09-30T09:23:50;22.60;86.30
4755;DHT22;2391;47.212;7.542;2023-09-30T09:26:28;22.60;86.30
4755;DHT22;2391;47.212;7.542;2023-09-30T09:29:02;22.60;86.10
4755;DHT22;2391;47.212;7.542;2023-09-30T09:31:33;22.50;86.20
4755;DHT22;2391;47.212;7.542;2023-09-30T09:34:00;22.50;85.80
4755;DHT22;2391;47.212;7.542;2023-09-30T09:36:40;22.50;85.60
4755;DHT22;2391;47.212;7.542;2023-09-30T09:39:07;22.50;86.30
4755;DHT22;2391;47.212;7.542;2023-09-30T09:41:48;22.50;86.20
4755;DHT22;2391;47.212;7.542;2023-09-30T09:44:02;22.40;86.50
4755;DHT22;2391;47.212;7.542;2023-09-30T09:46:30;22.40;86.30
4755;DHT22;2391;47.212;7.542;2023-09-30T09:48:56;22.30;86.50
4755;DHT22;2391;47.212;7.542;2023-09-30T09:51:23;22.30;86.40
4755;DHT22;2391;47.212;7.542;2023-09-30T09:53:49;22.30;86.80
4755;DHT22;2391;47.212;7.542;2023-09-30T09:56:17;22.40;87.20
4755;DHT22;2391;47.212;7.542;2023-09-30T09:58:45;22.40;86.30
4755;DHT22;2391;47.212;7.542;2023-09-30T10:01:13;22.50;85.90
4755;DHT22;2391;47.212;7.542;2023-09-30T10:03:39;22.40;85.00
4755;DHT22;2391;47.212;7.542;2023-09-30T10:06:05;22.40;85.80
4755;DHT22;2391;47.212;7.542;2023-09-30T10:08:40;22.40;85.80
4755;DHT22;2391;47.212;7.542;2023-09-30T10:11:07;22.50;86.00
4755;DHT22;2391;47.212;7.542;2023-09-30T10:19:17;22.60;85.10
4755;DHT22;2391;47.212;7.542;2023-09-30T10:24:46;22.50;83.80
4755;DHT22;2391;47.212;7.542;2023-09-30T10:40:53;22.60;81.70
4755;DHT22;2391;47.212;7.542;2023-09-30T10:43:37;22.70;81.50
4755;DHT22;2391;47.212;7.542;2023-09-30T10:46:04;22.70;81.70
4755;DHT22;2391;47.212;7.542;2023-09-30T10:48:34;22.70;81.90
4755;DHT22;2391;47.212;7.542;2023-09-30T10:51:15;22.80;80.60
4755;DHT22;2391;47.212;7.542;2023-09-30T10:53:51;22.80;80.80
4755;DHT22;2391;47.212;7.542;2023-09-30T10:56:14;22.90;80.50
4755;DHT22;2391;47.212;7.542;2023-09-30T10:58:45;22.80;80.50
4755;DHT22;2391;47.212;7.542;2023-09-30T11:01:12;22.80;81.20
4755;DHT22;2391;47.212;7.542;2023-09-30T11:03:40;22.80;80.80
4755;DHT22;2391;47.212;7.542;2023-09-30T11:06:07;22.80;79.80
4755;DHT22;2391;47.212;7.542;2023-09-30T11:08:33;22.90;80.30
4755;DHT22;2391;47.212;7.542;2023-09-30T11:11:00;22.90;80.00
4755;DHT22;2391;47.212;7.542;2023-09-30T11:13:33;22.90;80.60
4755;DHT22;2391;47.212;7.542;2023-09-30T11:16:03;22.90;80.30
4755;DHT22;2391;47.212;7.542;2023-09-30T11:18:34;22.90;80.50
4755;DHT22;2391;47.212;7.542;2023-09-30T11:21:05;22.80;80.30
4755;DHT22;2391;47.212;7.542;2023-09-30T11:23:32;22.80;81.50
4755;DHT22;2391;47.212;7.542;2023-09-30T11:25:58;22.80;80.20
4755;DHT22;2391;47.212;7.542;2023-09-30T11:28:24;22.80;80.40
4755;DHT22;2391;47.212;7.542;2023-09-30T11:30:56;22.90;80.50
4755;DHT22;2391;47.212;7.542;2023-09-30T11:33:23;22.90;78.70
4755;DHT22;2391;47.212;7.542;2023-09-30T11:36:01;23.00;79.30
4755;DHT22;2391;47.212;7.542;2023-09-30T11:38:28;23.00;80.00
4755;DHT22;2391;47.212;7.542;2023-09-30T11:41:02;23.00;80.30
4755;DHT22;2391;47.212;7.542;2023-09-30T11:43:28;23.00;81.20
4755;DHT22;2391;47.212;7.542;2023-09-30T11:46:10;23.00;81.00
4755;DHT22;2391;47.212;7.542;2023-09-30T11:48:37;23.00;81.50
4755;DHT22;2391;47.212;7.542;2023-09-30T11:51:04;23.10;80.40
4755;DHT22;2391;47.212;7.542;2023-09-30T11:53:30;23.00;80.50
4755;DHT22;2391;47.212;7.542;2023-09-30T11:55:57;23.00;80.60
4755;DHT22;2391;47.212;7.542;2023-09-30T11:58:28;23.10;80.50
4755;DHT22;2391;47.212;7.542;2023-09-30T12:00:55;23.00;80.00
4755;DHT22;2391;47.212;7.542;2023-09-30T12:03:23;23.00;80.20
4755;DHT22;2391;47.212;7.542;2023-09-30T12:05:48;23.10;79.80
4755;DHT22;2391;47.212;7.542;2023-09-30T12:08:14;23.10;79.30
4755;DHT22;2391;47.212;7.542;2023-09-30T12:10:40;23.10;80.00
4755;DHT22;2391;47.212;7.542;2023-09-30T12:13:06;23.10;80.30
4755;DHT22;2391;47.212;7.542;2023-09-30T12:15:31;23.10;79.20
4755;DHT22;2391;47.212;7.542;2023-09-30T12:17:57;23.10;79.50
4755;DHT22;2391;47.212;7.542;2023-09-30T12:20:23;23.20;80.00
4755;DHT22;2391;47.212;7.542;2023-09-30T12:22:50;23.20;79.80
4755;DHT22;2391;47.212;7.542;2023-09-30T12:25:18;23.20;80.10
4755;DHT22;2391;47.212;7.542;2023-09-30T12:27:45;23.20;80.00
4755;DHT22;2391;47.212;7.542;2023-09-30T12:30:12;23.20;79.00
4755;DHT22;2391;47.212;7.542;2023-09-30T12:32:40;23.20;79.80
4755;DHT22;2391;47.212;7.542;2023-09-30T12:35:06;23.20;80.10
4755;DHT22;2391;47.212;7.542;2023-09-30T12:37:32;23.30;80.00
4755;DHT22;2391;47.212;7.542;2023-09-30T12:39:58;23.40;79.30
4755;DHT22;2391;47.212;7.542;2023-09-30T12:42:24;23.40;79.30
4755;DHT22;2391;47.212;7.542;2023-09-30T12:44:50;23.40;79.20
4755;DHT22;2391;47.212;7.542;2023-09-30T12:47:16;23.50;79.90
4755;DHT22;2391;47.212;7.542;2023-09-30T12:49:41;23.50;79.90
4755;DHT22;2391;47.212;7.542;2023-09-30T12:52:07;23.50;79.40
4755;DHT22;2391;47.212;7.542;2023-09-30T12:54:33;23.60;78.90
4755;DHT22;2391;47.212;7.542;2023-09-30T12:56:59;23.60;78.40
4755;DHT22;2391;47.212;7.542;2023-09-30T12:59:25;23.60;78.20
4755;DHT22;2391;47.212;7.542;2023-09-30T13:01:51;23.60;77.90
4755;DHT22;2391;47.212;7.542;2023-09-30T13:04:17;23.60;78.20
4755;DHT22;2391;47.212;7.542;2023-09-30T13:06:44;23.60;78.80
4755;DHT22;2391;47.212;7.542;2023-09-30T13:09:10;23.60;77.90
4755;DHT22;2391;47.212;7.542;2023-09-30T13:11:37;23.60;77.80
4755;DHT22;2391;47.212;7.542;2023-09-30T13:14:04;23.70;78.10
4755;DHT22;2391;47.212;7.542;2023-09-30T13:16:30;23.70;78.60
4755;DHT22;2391;47.212;7.542;2023-09-30T13:18:56;23.60;78.60
4755;DHT22;2391;47.212;7.542;2023-09-30T13:21:22;23.60;77.40
4755;DHT22;2391;47.212;7.542;2023-09-30T13:23:48;23.50;78.30
4755;DHT22;2391;47.212;7.542;2023-09-30T13:26:14;23.40;79.10
4755;DHT22;2391;47.212;7.542;2023-09-30T13:28:39;23.40;79.10
4755;DHT22;2391;47.212;7.542;2023-09-30T13:31:05;23.40;79.60
4755;DHT22;2391;47.212;7.542;2023-09-30T13:33:31;23.40;79.20
4755;DHT22;2391;47.212;7.542;2023-09-30T13:35:57;23.40;79.20
4755;DHT22;2391;47.212;7.542;2023-09-30T13:38:23;23.40;79.90
4755;DHT22;2391;47.212;7.542;2023-09-30T13:40:49;23.40;79.00
4755;DHT22;2391;47.212;7.542;2023-09-30T13:43:15;23.50;79.80
4755;DHT22;2391;47.212;7.542;2023-09-30T13:45:40;23.50;79.40
4755;DHT22;2391;47.212;7.542;2023-09-30T13:48:06;23.60;79.20
4755;DHT22;2391;47.212;7.542;2023-09-30T13:50:32;23.70;79.30
4755;DHT22;2391;47.212;7.542;2023-09-30T13:52:57;23.70;78.80
4755;DHT22;2391;47.212;7.542;2023-09-30T13:55:25;23.70;78.90
4755;DHT22;2391;47.212;7.542;2023-09-30T13:57:51;23.70;79.60
4755;DHT22;2391;47.212;7.542;2023-09-30T14:00:17;23.70;79.70
4755;DHT22;2391;47.212;7.542;2023-09-30T14:02:43;23.80;79.30
4755;DHT22;2391;47.212;7.542;2023-09-30T14:05:09;23.80;79.70
4755;DHT22;2391;47.212;7.542;2023-09-30T14:07:36;23.90;79.60
4755;DHT22;2391;47.212;7.542;2023-09-30T14:10:03;23.90;79.20
4755;DHT22;2391;47.212;7.542;2023-09-30T14:12:29;23.90;79.10
4755;DHT22;2391;47.212;7.542;2023-09-30T14:14:55;24.00;78.80
4755;DHT22;2391;47.212;7.542;2023-09-30T14:17:21;24.00;78.40
4755;DHT22;2391;47.212;7.542;2023-09-30T14:19:46;24.00;78.40
4755;DHT22;2391;47.212;7.542;2023-09-30T14:22:12;24.10;78.20
4755;DHT22;2391;47.212;7.542;2023-09-30T14:24:38;24.20;78.80
4755;DHT22;2391;47.212;7.542;2023-09-30T14:27:04;24.30;79.10
4755;DHT22;2391;47.212;7.542;2023-09-30T14:29:31;24.40;78.90
4755;DHT22;2391;47.212;7.542;2023-09-30T14:31:58;24.50;78.60
4755;DHT22;2391;47.212;7.542;2023-09-30T14:34:24;24.60;79.00
4755;DHT22;2391;47.212;7.542;2023-09-30T14:36:51;24.70;78.90
4755;DHT22;2391;47.212;7.542;2023-09-30T14:39:17;24.80;79.00
4755;DHT22;2391;47.212;7.542;2023-09-30T14:41:44;24.80;79.00
4755;DHT22;2391;47.212;7.542;2023-09-30T14:44:10;24.90;78.70
4755;DHT22;2391;47.212;7.542;2023-09-30T14:46:38;24.90;78.40
4755;DHT22;2391;47.212;7.542;2023-09-30T14:49:05;24.90;77.70
4755;DHT22;2391;47.212;7.542;2023-09-30T14:51:35;24.90;77.80
4755;DHT22;2391;47.212;7.542;2023-09-30T14:54:02;24.90;77.90
4755;DHT22;2391;47.212;7.542;2023-09-30T14:56:28;24.90;77.60
4755;DHT22;2391;47.212;7.542;2023-09-30T14:58:54;24.90;78.30
4755;DHT22;2391;47.212;7.542;2023-09-30T15:01:20;24.80;78.50
4755;DHT22;2391;47.212;7.542;2023-09-30T15:03:46;24.80;78.50
4755;DHT22;2391;47.212;7.542;2023-09-30T15:06:12;24.80;78.20
4755;DHT22;2391;47.212;7.542;2023-09-30T15:08:39;24.80;78.40
4755;DHT22;2391;47.212;7.542;2023-09-30T15:11:05;24.80;78.80
4755;DHT22;2391;47.212;7.542;2023-09-30T15:13:32;24.70;78.70
4755;DHT22;2391;47.212;7.542;2023-09-30T15:15:57;24.70;79.30
4755;DHT22;2391;47.212;7.542;2023-09-30T15:18:23;24.70;79.40
4755;DHT22;2391;47.212;7.542;2023-09-30T15:20:50;24.70;79.30
4755;DHT22;2391;47.212;7.542;2023-09-30T15:23:15;24.70;78.70
4755;DHT22;2391;47.212;7.542;2023-09-30T15:25:42;24.70;78.70
4755;DHT22;2391;47.212;7.542;2023-09-30T15:28:09;24.60;79.20
4755;DHT22;2391;47.212;7.542;2023-09-30T15:30:35;24.60;79.40
4755;DHT22;2391;47.212;7.542;2023-09-30T15:33:01;24.60;79.40
4755;DHT22;2391;47.212;7.542;2023-09-30T15:35:30;24.60;79.00
4755;DHT22;2391;47.212;7.542;2023-09-30T15:37:56;24.60;79.60
4755;DHT22;2391;47.212;7.542;2023-09-30T15:40:23;24.60;79.70
4755;DHT22;2391;47.212;7.542;2023-09-30T15:42:49;24.60;79.70
4755;DHT22;2391;47.212;7.542;2023-09-30T15:45:15;24.60;79.30
4755;DHT22;2391;47.212;7.542;2023-09-30T15:47:42;24.50;79.30
4755;DHT22;2391;47.212;7.542;2023-09-30T15:50:09;24.50;79.80
4755;DHT22;2391;47.212;7.542;2023-09-30T15:52:34;24.40;79.60
4755;DHT22;2391;47.212;7.542;2023-09-30T15:55:01;24.20;79.60
4755;DHT22;2391;47.212;7.542;2023-09-30T15:57:27;24.10;80.00
4755;DHT22;2391;47.212;7.542;2023-09-30T15:59:52;24.10;80.30
4755;DHT22;2391;47.212;7.542;2023-09-30T16:02:18;24.20;80.70
4755;DHT22;2391;47.212;7.542;2023-09-30T16:04:44;24.20;80.90
4755;DHT22;2391;47.212;7.542;2023-09-30T16:07:09;24.30;80.40
4755;DHT22;2391;47.212;7.542;2023-09-30T16:09:37;24.30;80.20
4755;DHT22;2391;47.212;7.542;2023-09-30T16:12:03;24.30;80.50
4755;DHT22;2391;47.212;7.542;2023-09-30T16:14:30;24.30;80.20
4755;DHT22;2391;47.212;7.542;2023-09-30T16:16:57;24.30;80.30
4755;DHT22;2391;47.212;7.542;2023-09-30T16:19:25;24.20;80.00
4755;DHT22;2391;47.212;7.542;2023-09-30T16:21:53;24.20;80.50